sensor_id;sensor_type;location;lat;lon;timestamp;temperature;humidity
22795;DHT22;11564;50.920;11.612;2022-11-14T00:02:08;1.40;99.90
22795;DHT22;11564;50.920;11.612;2022-11-14T00:04:34;1.50;99.90
22795;DHT22;11564;50.920;11.612;2022-11-14T00:07:00;1.50;99.90
22795;DHT22;11564;50.920;11.612;2022-11-14T00:09:26;1.60;99.90
22795;DHT22;11564;50.920;11.612;2022-11-14T00:11:52;1.50;99.90
22795;DHT22;11564;50.920;11.612;2022-11-14T00:14:18;1.50;99.90
22795;DHT22;11564;50.920;11.612;2022-11-14T00:16:44;1.50;99.90
22795;DHT22;11564;50.920;11.612;2022-11-14T00:19:10;1.50;99.90
22795;DHT22;11564;50.920;11.612;2022-11-14T00:21:35;1.50;99.90
22795;DHT22;11564;50.920;11.612;2022-11-14T00:24:01;1.50;99.90
22795;DHT22;11564;50.920;11.612;2022-11-14T00:26:27;1.50;99.90
22795;DHT22;11564;50.920;11.612;2022-11-14T00:28:53;1.40;99.90
22795;DHT22;11564;50.920;11.612;2022-11-14T00:31:19;1.50;99.90
22795;DHT22;11564;50.920;11.612;2022-11-14T00:33:45;1.40;99.90
22795;DHT22;11564;50.920;11.612;2022-11-14T00:36:10;1.40;99.90
22795;DHT22;11564;50.920;11.612;2022-11-14T00:38:36;1.40;99.90
22795;DHT22;11564;50.920;11.612;2022-11-14T00:41:02;1.50;99.90
22795;DHT22;11564;50.920;11.612;2022-11-14T00:43:28;1.50;99.90
22795;DHT22;11564;50.920;11.612;2022-11-14T00:45:53;1.50;99.90
22795;DHT22;11564;50.920;11.612;2022-11-14T00:48:19;1.60;99.90
22795;DHT22;11564;50.920;11.612;2022-11-14T00:50:45;1.50;99.90
22795;DHT22;11564;50.920;11.612;2022-11-14T00:53:11;1.50;99.90
22795;DHT22;11564;50.920;11.612;2022-11-14T00:55:37;1.40;99.90
22795;DHT22;11564;50.920;11.612;2022-11-14T00:58:02;1.30;99.90
22795;DHT22;11564;50.920;11.612;2022-11-14T01:00:28;1.40;99.90
22795;DHT22;11564;50.920;11.612;2022-11-14T01:02:54;1.40;99.90
22795;DHT22;11564;50.920;11.612;2022-11-14T01:05:22;1.40;99.90
22795;DHT22;11564;50.920;11.612;2022-11-14T01:07:48;1.40;99.90
22795;DHT22;11564;50.920;11.612;2022-11-14T01:10:15;1.20;99.90
22795;DHT22;11564;50.920;11.612;2022-11-14T01:12:40;1.10;99.90
22795;DHT22;11564;50.920;11.612;2022-11-14T01:15:06;1.20;99.90
22795;DHT22;11564;50.920;11.612;2022-11-14T01:17:32;1.20;99.90
22795;DHT22;11564;50.920;11.612;2022-11-14T01:19:58;1.20;99.90
22795;DHT22;11564;50.920;11.612;2022-11-14T01:22:24;1.30;99.90
22795;DHT22;11564;50.920;11.612;2022-11-14T01:24:49;1.20;99.90
22795;DHT22;11564;50.920;11.612;2022-11-14T01:27:15;1.30;99.90
22795;DHT22;11564;50.920;11.612;2022-11-14T01:29:41;1.40;99.90
22795;DHT22;11564;50.920;11.612;2022-11-14T01:32:06;1.40;99.90
22795;DHT22;11564;50.920;11.612;2022-11-14T01:34:32;1.20;99.90
22795;DHT22;11564;50.920;11.612;2022-11-14T01:36:58;1.30;99.90
22795;DHT22;11564;50.920;11.612;2022-11-14T01:39:25;1.20;99.90
22795;DHT22;11564;50.920;11.612;2022-11-14T01:41:51;1.20;99.90
22795;DHT22;11564;50.920;11.612;2022-11-14T01:44:43;1.20;99.90
22795;DHT22;11564;50.920;11.612;2022-11-14T01:47:10;1.20;99.90
22795;DHT22;11564;50.920;11.612;2022-11-14T01:49:42;1.30;99.90
22795;DHT22;11564;50.920;11.612;2022-11-14T01:52:12;1.40;99.90
22795;DHT22;11564;50.920;11.612;2022-11-14T01:54:45;1.40;99.90
22795;DHT22;11564;50.920;11.612;2022-11-14T01:57:13;1.50;99.90
22795;DHT22;11564;50.920;11.612;2022-11-14T01:59:45;1.50;99.90
22795;DHT22;11564;50.920;11.612;2022-11-14T02:02:16;1.40;99.90
22795;DHT22;11564;50.920;11.612;2022-11-14T02:04:55;1.30;99.90
22795;DHT22;11564;50.920;11.612;2022-11-14T02:07:24;1.40;99.90
22795;DHT22;11564;50.920;11.612;2022-11-14T02:09:50;1.40;99.90
22795;DHT22;11564;50.920;11.612;2022-11-14T02:12:17;1.40;99.90
22795;DHT22;11564;50.920;11.612;2022-11-14T02:14:45;1.40;99.90
22795;DHT22;11564;50.920;11.612;2022-11-14T02:17:13;1.30;99.90
22795;DHT22;11564;50.920;11.612;2022-11-14T02:19:47;1.30;99.90
22795;DHT22;11564;50.920;11.612;2022-11-14T02:22:13;1.10;99.90
22795;DHT22;11564;50.920;11.612;2022-11-14T02:24:39;0.80;99.90
22795;DHT22;11564;50.920;11.612;2022-11-14T02:27:05;0.60;99.90
22795;DHT22;11564;50.920;11.612;2022-11-14T02:29:32;0.70;99.90
22795;DHT22;11564;50.920;11.612;2022-11-14T02:31:58;0.60;99.90
22795;DHT22;11564;50.920;11.612;2022-11-14T02:34:24;0.60;99.90
22795;DHT22;11564;50.920;11.612;2022-11-14T02:36:50;0.70;99.90
22795;DHT22;11564;50.920;11.612;2022-11-14T02:39:15;0.80;99.90
22795;DHT22;11564;50.920;11.612;2022-11-14T02:41:41;0.90;99.90
22795;DHT22;11564;50.920;11.612;2022-11-14T02:44:06;1.00;99.90
22795;DHT22;11564;50.920;11.612;2022-11-14T02:46:32;1.00;99.90
22795;DHT22;11564;50.920;11.612;2022-11-14T02:48:58;1.00;99.90
22795;DHT22;11564;50.920;11.612;2022-11-14T02:51:23;1.00;99.90
22795;DHT22;11564;50.920;11.612;2022-11-14T02:53:49;1.00;99.90
22795;DHT22;11564;50.920;11.612;2022-11-14T02:56:15;1.00;99.90
22795;DHT22;11564;50.920;11.612;2022-11-14T02:58:40;1.00;99.90
22795;DHT22;11564;50.920;11.612;2022-11-14T03:01:06;1.00;99.90
22795;DHT22;11564;50.920;11.612;2022-11-14T03:03:32;1.00;99.90
22795;DHT22;11564;50.920;11.612;2022-11-14T03:06:02;1.00;99.90
22795;DHT22;11564;50.920;11.612;2022-11-14T03:08:28;1.00;99.90
22795;DHT22;11564;50.920;11.612;2022-11-14T03:10:53;1.00;99.90
22795;DHT22;11564;50.920;11.612;2022-11-14T03:13:19;1.00;99.90
22795;DHT22;11564;50.920;11.612;2022-11-14T03:15:45;0.90;99.90
22795;DHT22;11564;50.920;11.612;2022-11-14T03:18:11;0.90;99.90
22795;DHT22;11564;50.920;11.612;2022-11-14T03:20:37;0.90;99.90
22795;DHT22;11564;50.920;11.612;2022-11-14T03:23:03;0.90;99.90
22795;DHT22;11564;50.920;11.612;2022-11-14T03:25:28;0.90;99.90
22795;DHT22;11564;50.920;11.612;2022-11-14T03:27:54;0.80;99.90
22795;DHT22;11564;50.920;11.612;2022-11-14T03:30:20;0.80;99.90
22795;DHT22;11564;50.920;11.612;2022-11-14T03:32:45;0.80;99.90
22795;DHT22;11564;50.920;11.612;2022-11-14T03:35:11;0.70;99.90
22795;DHT22;11564;50.920;11.612;2022-11-14T03:37:37;0.80;99.90
22795;DHT22;11564;50.920;11.612;2022-11-14T03:40:03;0.60;99.90
22795;DHT22;11564;50.920;11.612;2022-11-14T03:42:32;0.60;99.90
22795;DHT22;11564;50.920;11.612;2022-11-14T03:44:58;0.60;99.90
22795;DHT22;11564;50.920;11.612;2022-11-14T03:47:24;0.60;99.90
22795;DHT22;11564;50.920;11.612;2022-11-14T03:49:49;0.60;99.90
22795;DHT22;11564;50.920;11.612;2022-11-14T03:52:15;0.50;99.90
22795;DHT22;11564;50.920;11.612;2022-11-14T03:54:40;0.50;99.90
22795;DHT22;11564;50.920;11.612;2022-11-14T03:57:06;0.40;99.90
22795;DHT22;11564;50.920;11.612;2022-11-14T03:59:32;0.30;99.90
22795;DHT22;11564;50.920;11.612;2022-11-14T04:01:57;0.30;99.90
22795;DHT22;11564;50.920;11.612;2022-11-14T04:04:23;0.20;99.90
22795;DHT22;11564;50.920;11.612;2022-11-14T04:06:49;0.20;99.90
22795;DHT22;11564;50.920;11.612;2022-11-14T04:09:14;0.10;99.90
22795;DHT22;11564;50.920;11.612;2022-11-14T04:11:40;0.00;99.90
22795;DHT22;11564;50.920;11.612;2022-11-14T04:14:05;0.00;99.90
22795;DHT22;11564;50.920;11.612;2022-11-14T04:16:31;-0.10;99.90
22795;DHT22;11564;50.920;11.612;2022-11-14T04:18:56;-0.10;99.90
22795;DHT22;11564;50.920;11.612;2022-11-14T04:21:22;-0.10;99.90
22795;DHT22;11564;50.920;11.612;2022-11-14T04:23:48;-0.10;99.90
22795;DHT22;11564;50.920;11.612;2022-11-14T04:26:14;-0.20;99.90
22795;DHT22;11564;50.920;11.612;2022-11-14T04:28:39;-0.20;99.90
22795;DHT22;11564;50.920;11.612;2022-11-14T04:31:05;-0.20;99.90
22795;DHT22;11564;50.920;11.612;2022-11-14T04:33:30;-0.30;99.90
22795;DHT22;11564;50.920;11.612;2022-11-14T04:35:56;-0.30;99.90
22795;DHT22;11564;50.920;11.612;2022-11-14T04:38:21;-0.30;99.90
22795;DHT22;11564;50.920;11.612;2022-11-14T04:40:49;-0.30;99.90
22795;DHT22;11564;50.920;11.612;2022-11-14T04:43:15;-0.30;99.90
22795;DHT22;11564;50.920;11.612;2022-11-14T04:45:40;-0.30;99.90
22795;DHT22;11564;50.920;11.612;2022-11-14T04:48:06;-0.30;99.90
22795;DHT22;11564;50.920;11.612;2022-11-14T04:50:31;-0.20;99.90
22795;DHT22;11564;50.920;11.612;2022-11-14T04:52:57;-0.20;99.90
22795;DHT22;11564;50.920;11.612;2022-11-14T04:55:23;-0.20;99.90
22795;DHT22;11564;50.920;11.612;2022-11-14T04:57:56;-0.20;99.90
22795;DHT22;11564;50.920;11.612;2022-11-14T05:00:22;-0.20;99.90
22795;DHT22;11564;50.920;11.612;2022-11-14T05:02:48;-0.30;99.90
22795;DHT22;11564;50.920;11.612;2022-11-14T05:05:14;-0.30;99.90
22795;DHT22;11564;50.920;11.612;2022-11-14T05:07:39;-0.50;99.90
22795;DHT22;11564;50.920;11.612;2022-11-14T05:10:06;-0.60;99.90
22795;DHT22;11564;50.920;11.612;2022-11-14T05:12:32;-0.60;99.90
22795;DHT22;11564;50.920;11.612;2022-11-14T05:14:58;-0.50;99.90
22795;DHT22;11564;50.920;11.612;2022-11-14T05:17:24;-0.50;99.90
22795;DHT22;11564;50.920;11.612;2022-11-14T05:19:49;-0.30;99.90
22795;DHT22;11564;50.920;11.612;2022-11-14T05:22:15;-0.20;99.90
22795;DHT22;11564;50.920;11.612;2022-11-14T05:24:41;-0.20;99.90
22795;DHT22;11564;50.920;11.612;2022-11-14T05:27:06;-0.20;99.90
22795;DHT22;11564;50.920;11.612;2022-11-14T05:29:32;-0.20;99.90
22795;DHT22;11564;50.920;11.612;2022-11-14T05:31:57;-0.10;99.90
22795;DHT22;11564;50.920;11.612;2022-11-14T05:34:23;-0.10;99.90
22795;DHT22;11564;50.920;11.612;2022-11-14T05:36:49;-0.10;99.90
22795;DHT22;11564;50.920;11.612;2022-11-14T05:39:15;0.00;99.90
22795;DHT22;11564;50.920;11.612;2022-11-14T05:41:41;0.00;99.90
22795;DHT22;11564;50.920;11.612;2022-11-14T05:44:06;0.00;99.90
22795;DHT22;11564;50.920;11.612;2022-11-14T05:46:32;0.00;99.90
22795;DHT22;11564;50.920;11.612;2022-11-14T05:48:58;0.00;99.90
22795;DHT22;11564;50.920;11.612;2022-11-14T05:51:23;0.00;99.90
22795;DHT22;11564;50.920;11.612;2022-11-14T05:53:49;-0.10;99.90
22795;DHT22;11564;50.920;11.612;2022-11-14T05:56:15;0.00;99.90
22795;DHT22;11564;50.920;11.612;2022-11-14T05:58:40;0.00;99.90
22795;DHT22;11564;50.920;11.612;2022-11-14T06:01:11;0.00;99.90
22795;DHT22;11564;50.920;11.612;2022-11-14T06:03:40;0.00;99.90
22795;DHT22;11564;50.920;11.612;2022-11-14T06:06:08;0.10;99.90
22795;DHT22;11564;50.920;11.612;2022-11-14T06:08:35;0.10;99.90
22795;DHT22;11564;50.920;11.612;2022-11-14T06:11:12;0.10;99.90
22795;DHT22;11564;50.920;11.612;2022-11-14T06:13:38;0.10;99.90
22795;DHT22;11564;50.920;11.612;2022-11-14T06:16:09;0.10;99.90
22795;DHT22;11564;50.920;11.612;2022-11-14T06:18:35;0.10;99.90
22795;DHT22;11564;50.920;11.612;2022-11-14T06:21:22;0.10;99.90
22795;DHT22;11564;50.920;11.612;2022-11-14T06:23:48;0.10;99.90
22795;DHT22;11564;50.920;11.612;2022-11-14T06:26:28;0.10;99.90
22795;DHT22;11564;50.920;11.612;2022-11-14T06:28:57;0.20;99.90
22795;DHT22;11564;50.920;11.612;2022-11-14T06:31:24;0.20;99.90
22795;DHT22;11564;50.920;11.612;2022-11-14T06:33:50;0.20;99.90
22795;DHT22;11564;50.920;11.612;2022-11-14T06:36:16;0.20;99.90
22795;DHT22;11564;50.920;11.612;2022-11-14T06:38:42;0.10;99.90
22795;DHT22;11564;50.920;11.612;2022-11-14T06:41:13;0.20;99.90
22795;DHT22;11564;50.920;11.612;2022-11-14T06:43:41;0.30;99.90
22795;DHT22;11564;50.920;11.612;2022-11-14T06:46:09;0.30;99.90
22795;DHT22;11564;50.920;11.612;2022-11-14T06:48:35;0.30;99.90
22795;DHT22;11564;50.920;11.612;2022-11-14T06:51:02;0.30;99.90
22795;DHT22;11564;50.920;11.612;2022-11-14T06:53:30;0.40;99.90
22795;DHT22;11564;50.920;11.612;2022-11-14T06:55:57;0.40;99.90
22795;DHT22;11564;50.920;11.612;2022-11-14T06:58:28;0.40;99.90
22795;DHT22;11564;50.920;11.612;2022-11-14T07:00:54;0.40;99.90
22795;DHT22;11564;50.920;11.612;2022-11-14T07:03:20;0.50;99.90
22795;DHT22;11564;50.920;11.612;2022-11-14T07:05:46;0.40;99.90
22795;DHT22;11564;50.920;11.612;2022-11-14T07:08:11;0.40;99.90
22795;DHT22;11564;50.920;11.612;2022-11-14T07:10:37;0.40;99.90
22795;DHT22;11564;50.920;11.612;2022-11-14T07:13:02;0.40;99.90
22795;DHT22;11564;50.920;11.612;2022-11-14T07:15:28;0.50;99.90
22795;DHT22;11564;50.920;11.612;2022-11-14T07:17:54;0.60;99.90
22795;DHT22;11564;50.920;11.612;2022-11-14T07:20:19;0.60;99.90
22795;DHT22;11564;50.920;11.612;2022-11-14T07:22:45;0.50;99.90
22795;DHT22;11564;50.920;11.612;2022-11-14T07:25:12;0.60;99.90
22795;DHT22;11564;50.920;11.612;2022-11-14T07:27:38;0.70;99.90
22795;DHT22;11564;50.920;11.612;2022-11-14T07:30:04;0.60;99.90
22795;DHT22;11564;50.920;11.612;2022-11-14T07:32:30;0.60;99.90
22795;DHT22;11564;50.920;11.612;2022-11-14T07:34:56;0.60;99.90
22795;DHT22;11564;50.920;11.612;2022-11-14T07:37:21;0.70;99.90
22795;DHT22;11564;50.920;11.612;2022-11-14T07:39:47;0.50;99.90
22795;DHT22;11564;50.920;11.612;2022-11-14T07:42:12;0.50;99.90
22795;DHT22;11564;50.920;11.612;2022-11-14T07:44:38;0.30;99.90
22795;DHT22;11564;50.920;11.612;2022-11-14T07:47:04;0.30;99.90
22795;DHT22;11564;50.920;11.612;2022-11-14T07:49:29;0.20;99.90
22795;DHT22;11564;50.920;11.612;2022-11-14T07:51:55;0.10;99.90
22795;DHT22;11564;50.920;11.612;2022-11-14T07:54:20;0.20;99.90
22795;DHT22;11564;50.920;11.612;2022-11-14T07:56:46;0.30;99.90
22795;DHT22;11564;50.920;11.612;2022-11-14T07:59:12;0.40;99.90
22795;DHT22;11564;50.920;11.612;2022-11-14T08:01:37;0.40;99.90
22795;DHT22;11564;50.920;11.612;2022-11-14T08:04:03;0.60;99.90
22795;DHT22;11564;50.920;11.612;2022-11-14T08:06:35;0.60;99.90
22795;DHT22;11564;50.920;11.612;2022-11-14T08:09:01;0.60;99.90
22795;DHT22;11564;50.920;11.612;2022-11-14T08:11:26;0.60;99.90
22795;DHT22;11564;50.920;11.612;2022-11-14T08:14:10;0.60;99.90
22795;DHT22;11564;50.920;11.612;2022-11-14T08:16:36;0.70;99.90
22795;DHT22;11564;50.920;11.612;2022-11-14T08:19:02;0.70;99.90
22795;DHT22;11564;50.920;11.612;2022-11-14T08:21:27;0.90;99.90
22795;DHT22;11564;50.920;11.612;2022-11-14T08:23:53;1.00;99.90
22795;DHT22;11564;50.920;11.612;2022-11-14T08:26:18;1.20;99.90
22795;DHT22;11564;50.920;11.612;2022-11-14T08:28:44;1.50;99.90
22795;DHT22;11564;50.920;11.612;2022-11-14T08:31:11;1.50;99.90
22795;DHT22;11564;50.920;11.612;2022-11-14T08:33:38;1.80;99.90
22795;DHT22;11564;50.920;11.612;2022-11-14T08:36:05;1.80;99.90
22795;DHT22;11564;50.920;11.612;2022-11-14T08:38:33;2.10;99.90
22795;DHT22;11564;50.920;11.612;2022-11-14T08:41:00;2.00;99.90
22795;DHT22;11564;50.920;11.612;2022-11-14T08:43:26;2.30;99.90
22795;DHT22;11564;50.920;11.612;2022-11-14T08:45:51;2.20;99.90
22795;DHT22;11564;50.920;11.612;2022-11-14T08:48:17;2.40;99.90
22795;DHT22;11564;50.920;11.612;2022-11-14T08:50:43;2.50;99.90
22795;DHT22;11564;50.920;11.612;2022-11-14T08:53:08;2.50;99.90
22795;DHT22;11564;50.920;11.612;2022-11-14T08:55:34;2.60;99.90
22795;DHT22;11564;50.920;11.612;2022-11-14T08:57:59;2.90;99.90
22795;DHT22;11564;50.920;11.612;2022-11-14T09:00:25;3.00;99.90
22795;DHT22;11564;50.920;11.612;2022-11-14T09:02:50;3.20;99.90
22795;DHT22;11564;50.920;11.612;2022-11-14T09:05:16;3.10;99.90
22795;DHT22;11564;50.920;11.612;2022-11-14T09:07:42;3.30;99.90
22795;DHT22;11564;50.920;11.612;2022-11-14T09:10:08;3.50;99.90
22795;DHT22;11564;50.920;11.612;2022-11-14T09:12:34;3.60;99.90
22795;DHT22;11564;50.920;11.612;2022-11-14T09:14:59;3.90;99.90
22795;DHT22;11564;50.920;11.612;2022-11-14T09:17:25;4.00;99.90
22795;DHT22;11564;50.920;11.612;2022-11-14T09:19:51;3.60;99.90
22795;DHT22;11564;50.920;11.612;2022-11-14T09:22:16;3.10;99.90
22795;DHT22;11564;50.920;11.612;2022-11-14T09:24:43;3.30;99.90
22795;DHT22;11564;50.920;11.612;2022-11-14T09:27:11;3.20;99.90
22795;DHT22;11564;50.920;11.612;2022-11-14T09:29:36;3.50;99.90
22795;DHT22;11564;50.920;11.612;2022-11-14T09:32:02;3.90;99.90
22795;DHT22;11564;50.920;11.612;2022-11-14T09:34:28;4.00;99.90
22795;DHT22;11564;50.920;11.612;2022-11-14T09:36:53;4.20;99.90
22795;DHT22;11564;50.920;11.612;2022-11-14T09:39:19;4.50;99.90
22795;DHT22;11564;50.920;11.612;2022-11-14T09:42:03;4.50;99.90
22795;DHT22;11564;50.920;11.612;2022-11-14T09:44:45;4.60;99.90
22795;DHT22;11564;50.920;11.612;2022-11-14T09:47:16;4.70;99.90
22795;DHT22;11564;50.920;11.612;2022-11-14T09:49:44;4.70;99.90
22795;DHT22;11564;50.920;11.612;2022-11-14T09:54:59;3.90;99.90
22795;DHT22;11564;50.920;11.612;2022-11-14T09:57:26;3.80;99.90
22795;DHT22;11564;50.920;11.612;2022-11-14T09:59:52;3.50;99.90
22795;DHT22;11564;50.920;11.612;2022-11-14T10:02:39;3.10;99.90
22795;DHT22;11564;50.920;11.612;2022-11-14T10:07:54;2.90;99.90
22795;DHT22;11564;50.920;11.612;2022-11-14T10:27:28;4.20;99.90
22795;DHT22;11564;50.920;11.612;2022-11-14T10:35:38;4.70;99.90
22795;DHT22;11564;50.920;11.612;2022-11-14T10:40:46;5.20;99.90
22795;DHT22;11564;50.920;11.612;2022-11-14T10:46:06;5.50;99.90
22795;DHT22;11564;50.920;11.612;2022-11-14T10:48:40;5.70;99.90
22795;DHT22;11564;50.920;11.612;2022-11-14T10:56:54;5.80;99.90
22795;DHT22;11564;50.920;11.612;2022-11-14T10:59:20;6.10;99.90
22795;DHT22;11564;50.920;11.612;2022-11-14T11:04:25;6.50;99.90
22795;DHT22;11564;50.920;11.612;2022-11-14T11:06:54;6.80;99.90
22795;DHT22;11564;50.920;11.612;2022-11-14T11:09:27;7.00;99.90
22795;DHT22;11564;50.920;11.612;2022-11-14T11:12:15;7.30;99.90
22795;DHT22;11564;50.920;11.612;2022-11-14T11:14:43;7.40;99.90
22795;DHT22;11564;50.920;11.612;2022-11-14T11:17:16;7.50;99.90
22795;DHT22;11564;50.920;11.612;2022-11-14T11:19:44;7.70;99.90
22795;DHT22;11564;50.920;11.612;2022-11-14T11:24:51;8.00;99.90
22795;DHT22;11564;50.920;11.612;2022-11-14T11:27:26;8.20;99.90
22795;DHT22;11564;50.920;11.612;2022-11-14T11:32:27;8.70;99.90
22795;DHT22;11564;50.920;11.612;2022-11-14T11:34:54;9.00;99.90
22795;DHT22;11564;50.920;11.612;2022-11-14T11:37:36;9.20;99.90
22795;DHT22;11564;50.920;11.612;2022-11-14T11:40:05;9.40;99.90
22795;DHT22;11564;50.920;11.612;2022-11-14T11:45:01;10.00;99.90
22795;DHT22;11564;50.920;11.612;2022-11-14T11:47:30;10.40;99.90
22795;DHT22;11564;50.920;11.612;2022-11-14T11:49:59;10.70;99.90
22795;DHT22;11564;50.920;11.612;2022-11-14T11:52:29;10.80;99.90
22795;DHT22;11564;50.920;11.612;2022-11-14T11:57:35;11.30;99.90
22795;DHT22;11564;50.920;11.612;2022-11-14T12:00:12;11.60;99.90
22795;DHT22;11564;50.920;11.612;2022-11-14T12:02:41;12.20;99.90
22795;DHT22;11564;50.920;11.612;2022-11-14T12:05:13;12.70;99.90
22795;DHT22;11564;50.920;11.612;2022-11-14T12:08:04;12.40;99.40
22795;DHT22;11564;50.920;11.612;2022-11-14T12:10:37;12.70;99.20
22795;DHT22;11564;50.920;11.612;2022-11-14T12:31:27;21.60;72.30
22795;DHT22;11564;50.920;11.612;2022-11-14T12:34:03;21.50;71.20
22795;DHT22;11564;50.920;11.612;2022-11-14T12:36:31;22.40;70.70
22795;DHT22;11564;50.920;11.612;2022-11-14T12:38:58;22.70;69.00
22795;DHT22;11564;50.920;11.612;2022-11-14T12:52:03;23.90;62.70
22795;DHT22;11564;50.920;11.612;2022-11-14T12:54:45;23.40;63.80
22795;DHT22;11564;50.920;11.612;2022-11-14T12:57:20;22.90;64.10
22795;DHT22;11564;50.920;11.612;2022-11-14T13:00:10;22.50;64.40
22795;DHT22;11564;50.920;11.612;2022-11-14T13:02:52;23.30;63.70
22795;DHT22;11564;50.920;11.612;2022-11-14T13:05:43;23.90;62.10
22795;DHT22;11564;50.920;11.612;2022-11-14T13:14:17;23.30;61.60
22795;DHT22;11564;50.920;11.612;2022-11-14T13:17:23;22.80;62.80
22795;DHT22;11564;50.920;11.612;2022-11-14T13:20:29;24.00;60.90
22795;DHT22;11564;50.920;11.612;2022-11-14T13:31:20;24.70;59.90
22795;DHT22;11564;50.920;11.612;2022-11-14T13:33:49;25.90;58.10
22795;DHT22;11564;50.920;11.612;2022-11-14T13:36:36;25.30;59.00
22795;DHT22;11564;50.920;11.612;2022-11-14T13:42:30;25.30;58.00
22795;DHT22;11564;50.920;11.612;2022-11-14T13:50:32;18.50;70.60
22795;DHT22;11564;50.920;11.612;2022-11-14T13:53:01;17.10;74.30
22795;DHT22;11564;50.920;11.612;2022-11-14T14:12:51;12.30;90.50
22795;DHT22;11564;50.920;11.612;2022-11-14T14:20:58;11.30;92.50
22795;DHT22;11564;50.920;11.612;2022-11-14T14:25:55;10.90;93.10
22795;DHT22;11564;50.920;11.612;2022-11-14T14:28:38;10.60;93.50
22795;DHT22;11564;50.920;11.612;2022-11-14T14:31:16;10.30;93.90
22795;DHT22;11564;50.920;11.612;2022-11-14T14:33:48;10.20;94.10
22795;DHT22;11564;50.920;11.612;2022-11-14T14:36:26;9.90;95.00
22795;DHT22;11564;50.920;11.612;2022-11-14T14:39:16;9.80;95.20
22795;DHT22;11564;50.920;11.612;2022-11-14T14:41:42;9.40;95.90
22795;DHT22;11564;50.920;11.612;2022-11-14T14:44:37;9.20;96.50
22795;DHT22;11564;50.920;11.612;2022-11-14T14:47:37;9.00;96.80
22795;DHT22;11564;50.920;11.612;2022-11-14T14:50:18;9.00;97.00
22795;DHT22;11564;50.920;11.612;2022-11-14T14:52:44;8.90;97.10
22795;DHT22;11564;50.920;11.612;2022-11-14T14:55:33;8.80;97.10
22795;DHT22;11564;50.920;11.612;2022-11-14T15:00:39;8.60;97.50
22795;DHT22;11564;50.920;11.612;2022-11-14T15:03:14;8.40;97.80
22795;DHT22;11564;50.920;11.612;2022-11-14T15:05:39;8.10;98.10
22795;DHT22;11564;50.920;11.612;2022-11-14T15:08:05;8.00;98.50
22795;DHT22;11564;50.920;11.612;2022-11-14T15:10:36;8.00;98.80
22795;DHT22;11564;50.920;11.612;2022-11-14T15:13:03;7.80;99.30
22795;DHT22;11564;50.920;11.612;2022-11-14T15:15:29;7.70;99.60
22795;DHT22;11564;50.920;11.612;2022-11-14T15:17:56;7.70;99.90
22795;DHT22;11564;50.920;11.612;2022-11-14T15:20:26;7.50;99.90
22795;DHT22;11564;50.920;11.612;2022-11-14T15:23:17;7.40;99.90
22795;DHT22;11564;50.920;11.612;2022-11-14T15:25:43;7.30;99.90
22795;DHT22;11564;50.920;11.612;2022-11-14T15:28:15;7.10;99.90
22795;DHT22;11564;50.920;11.612;2022-11-14T15:30:41;7.00;99.90
22795;DHT22;11564;50.920;11.612;2022-11-14T15:33:31;7.00;99.90
22795;DHT22;11564;50.920;11.612;2022-11-14T15:36:12;6.80;99.90
22795;DHT22;11564;50.920;11.612;2022-11-14T15:38:39;6.70;99.90
22795;DHT22;11564;50.920;11.612;2022-11-14T15:46:39;6.40;99.90
22795;DHT22;11564;50.920;11.612;2022-11-14T15:49:23;6.20;99.90
22795;DHT22;11564;50.920;11.612;2022-11-14T15:54:27;6.10;99.90
22795;DHT22;11564;50.920;11.612;2022-11-14T15:57:16;6.00;99.90
22795;DHT22;11564;50.920;11.612;2022-11-14T15:59:41;6.00;99.90
22795;DHT22;11564;50.920;11.612;2022-11-14T16:02:20;5.90;99.90
22795;DHT22;11564;50.920;11.612;2022-11-14T16:04:48;5.90;99.90
22795;DHT22;11564;50.920;11.612;2022-11-14T16:07:16;5.80;99.90
22795;DHT22;11564;50.920;11.612;2022-11-14T16:09:41;5.80;99.90
22795;DHT22;11564;50.920;11.612;2022-11-14T16:12:07;5.90;99.90
22795;DHT22;11564;50.920;11.612;2022-11-14T16:14:33;5.80;99.90
22795;DHT22;11564;50.920;11.612;2022-11-14T16:16:59;5.90;99.90
22795;DHT22;11564;50.920;11.612;2022-11-14T16:19:25;5.80;99.90
22795;DHT22;11564;50.920;11.612;2022-11-14T16:21:51;5.80;99.90
22795;DHT22;11564;50.920;11.612;2022-11-14T16:24:21;5.90;99.90
22795;DHT22;11564;50.920;11.612;2022-11-14T16:26:47;5.90;99.90
22795;DHT22;11564;50.920;11.612;2022-11-14T16:29:13;5.90;99.90
22795;DHT22;11564;50.920;11.612;2022-11-14T16:31:39;5.90;99.90
22795;DHT22;11564;50.920;11.612;2022-11-14T16:34:05;5.90;99.90
22795;DHT22;11564;50.920;11.612;2022-11-14T16:36:31;5.90;99.90
22795;DHT22;11564;50.920;11.612;2022-11-14T16:38:59;5.80;99.90
22795;DHT22;11564;50.920;11.612;2022-11-14T16:41:25;5.70;99.90
22795;DHT22;11564;50.920;11.612;2022-11-14T16:43:55;5.70;99.90
22795;DHT22;11564;50.920;11.612;2022-11-14T16:46:22;5.60;99.90
22795;DHT22;11564;50.920;11.612;2022-11-14T16:48:48;5.50;99.90
22795;DHT22;11564;50.920;11.612;2022-11-14T16:51:13;5.50;99.90
22795;DHT22;11564;50.920;11.612;2022-11-14T16:53:39;5.40;99.90
22795;DHT22;11564;50.920;11.612;2022-11-14T16:56:05;5.40;99.90
22795;DHT22;11564;50.920;11.612;2022-11-14T16:58:30;5.50;99.90
22795;DHT22;11564;50.920;11.612;2022-11-14T17:00:56;5.60;99.90
22795;DHT22;11564;50.920;11.612;2022-11-14T17:03:22;5.70;99.90
22795;DHT22;11564;50.920;11.612;2022-11-14T17:05:50;5.70;99.90
22795;DHT22;11564;50.920;11.612;2022-11-14T17:08:16;5.80;99.90
22795;DHT22;11564;50.920;11.612;2022-11-14T17:10:43;5.80;99.90
22795;DHT22;11564;50.920;11.612;2022-11-14T17:13:10;6.00;99.90
22795;DHT22;11564;50.920;11.612;2022-11-14T17:15:36;6.00;99.90
22795;DHT22;11564;50.920;11.612;2022-11-14T17:18:03;5.90;99.90
22795;DHT22;11564;50.920;11.612;2022-11-14T17:20:29;6.00;99.90
22795;DHT22;11564;50.920;11.612;2022-11-14T17:22:54;6.00;99.90
22795;DHT22;11564;50.920;11.612;2022-11-14T17:25:21;6.00;99.90
22795;DHT22;11564;50.920;11.612;2022-11-14T17:27:46;5.90;99.90
22795;DHT22;11564;50.920;11.612;2022-11-14T17:30:14;5.80;99.90
22795;DHT22;11564;50.920;11.612;2022-11-14T17:32:40;5.70;99.90
22795;DHT22;11564;50.920;11.612;2022-11-14T17:35:06;5.60;99.90
22795;DHT22;11564;50.920;11.612;2022-11-14T17:37:32;5.50;99.90
22795;DHT22;11564;50.920;11.612;2022-11-14T17:39:58;5.50;99.90
22795;DHT22;11564;50.920;11.612;2022-11-14T17:42:24;5.30;99.90
22795;DHT22;11564;50.920;11.612;2022-11-14T17:44:49;5.20;99.90
22795;DHT22;11564;50.920;11.612;2022-11-14T17:47:16;5.20;99.90
22795;DHT22;11564;50.920;11.612;2022-11-14T17:49:42;5.10;99.90
22795;DHT22;11564;50.920;11.612;2022-11-14T17:52:07;5.00;99.90
22795;DHT22;11564;50.920;11.612;2022-11-14T17:54:33;4.90;99.90
22795;DHT22;11564;50.920;11.612;2022-11-14T17:57:02;4.80;99.90